Time;durP1;ratioP1;P1;durP2;ratioP2;P2;SDS_P1;SDS_P2;PMS_P1;PMS_P2;Temp;Humidity;BMP_temperature;BMP_pressure;BME280_temperature;BME280_humidity;BME280_pressure;Samples;Min_cycle;Max_cycle;Signal;HPM_P1;HPM_P2
2023/04/24 00:00:42;;;;;;;;;;;13.30;93.10;;;13.73;58.96;97664.13;4920185;28;114189;-80
2023/04/24 00:03:08;;;;;;;;;;;13.30;93.10;;;13.72;58.94;97665.31;4930108;28;114638;-77
2023/04/24 00:05:34;;;;;;;;;;;13.30;93.00;;;13.74;58.77;97671.31;4918523;28;124570;-77
2023/04/24 00:08:00;;;;;;;;;;;13.40;93.00;;;13.72;58.82;97668.88;4929332;28;123767;-76
2023/04/24 00:10:27;;;;;;;;;;;13.40;92.90;;;13.72;58.61;97674.44;4923956;28;114207;-76
2023/04/24 00:12:53;;;;;;;;;;;13.30;92.80;;;13.72;58.52;97677.19;4928499;28;113765;-76
2023/04/24 00:15:19;;;;;;;;;;;13.40;92.90;;;13.76;58.33;97678.09;4927499;28;123603;-76
2023/04/24 00:17:46;;;;;;;;;;;13.40;92.70;;;13.77;58.32;97676.13;4927533;28;123886;-76
2023/04/24 00:20:14;;;;;;;;;;;13.40;92.60;;;13.76;57.84;97666.19;4929166;28;114745;-76
2023/04/24 00:22:40;;;;;;;;;;;13.40;92.50;;;13.79;57.80;97666.28;4926447;28;113816;-77
2023/04/24 00:25:07;;;;;;;;;;;13.40;92.30;;;13.83;57.67;97680.22;4915535;28;124238;-79
2023/04/24 00:27:35;;;;;;;;;;;13.50;92.30;;;13.85;57.74;97689.81;4925098;28;123912;-77
2023/04/24 00:30:01;;;;;;;;;;;13.50;92.60;;;13.89;57.53;97681.59;4925233;28;114029;-77
2023/04/24 00:32:28;;;;;;;;;;;13.50;92.30;;;13.89;57.52;97693.50;4929917;28;114958;-77
2023/04/24 00:34:54;;;;;;;;;;;13.50;92.20;;;13.90;56.90;97691.50;4928745;28;124338;-76
2023/04/24 00:37:20;;;;;;;;;;;13.50;92.10;;;13.94;57.54;97692.38;4911326;28;124375;-78
2023/04/24 00:39:46;;;;;;;;;;;13.60;92.20;;;13.98;57.05;97684.94;4927901;28;114744;-78
2023/04/24 00:42:13;;;;;;;;;;;13.60;92.10;;;13.98;57.23;97676.63;4926934;28;113818;-77
2023/04/24 00:44:39;;;;;;;;;;;13.60;92.00;;;14.00;56.73;97673.50;4925992;28;124093;-77
2023/04/24 00:47:05;;;;;;;;;;;13.60;91.90;;;14.00;56.70;97679.03;4926311;28;124499;-79
2023/04/24 00:49:32;;;;;;;;;;;13.60;91.90;;;14.01;56.64;97675.88;4926256;28;114789;-76
2023/04/24 00:51:59;;;;;;;;;;;13.60;91.70;;;14.05;56.68;97665.69;4915627;28;113949;-77
2023/04/24 00:54:25;;;;;;;;;;;13.60;91.70;;;14.07;56.40;97660.53;4919434;28;123970;-79
2023/04/24 00:56:52;;;;;;;;;;;13.60;91.70;;;14.09;56.53;97672.09;4916340;28;124949;-79
2023/04/24 00:59:18;;;;;;;;;;;13.60;91.70;;;14.10;56.48;97664.56;4928640;28;114787;-81
2023/04/24 01:01:45;;;;;;;;;;;13.70;91.70;;;14.11;56.19;97663.41;4922174;28;113659;-79
2023/04/24 01:04:11;;;;;;;;;;;13.70;91.60;;;14.12;56.24;97662.22;4936227;28;124248;-78
2023/04/24 01:06:42;;;;;;;;;;;13.70;91.60;;;14.12;56.19;97659.47;4923936;28;124650;-77
2023/04/24 01:09:09;;;;;;;;;;;13.70;91.60;;;14.11;56.27;97666.19;4915440;28;114454;-78
2023/04/24 01:11:36;;;;;;;;;;;13.70;91.50;;;14.13;56.26;97666.63;4924792;28;112684;-77
2023/04/24 01:14:02;;;;;;;;;;;13.70;91.50;;;14.12;56.18;97660.25;4926233;28;123988;-78
2023/04/24 01:16:29;;;;;;;;;;;13.70;91.50;;;14.12;56.30;97660.25;4928548;28;123740;-77
2023/04/24 01:18:55;;;;;;;;;;;13.80;91.60;;;14.15;56.22;97655.94;4927971;28;115201;-80
2023/04/24 01:21:27;;;;;;;;;;;13.70;91.50;;;14.15;56.22;97653.97;4930968;28;114595;-77
2023/04/24 01:23:53;;;;;;;;;;;13.80;91.60;;;14.14;56.05;97657.13;4929547;28;123953;-81
2023/04/24 01:26:20;;;;;;;;;;;13.70;91.50;;;14.14;56.34;97652.38;4931171;28;124000;-76
2023/04/24 01:28:46;;;;;;;;;;;13.80;91.50;;;14.15;56.38;97655.94;4948617;28;112727;-75
2023/04/24 01:31:12;;;;;;;;;;;13.80;91.50;;;14.15;56.23;97653.97;4950723;28;113139;-75
2023/04/24 01:33:39;;;;;;;;;;;15.60;92.30;;;14.15;56.70;97642.84;4931354;28;124314;-76
2023/04/24 01:36:06;;;;;;;;;;;13.80;91.60;;;14.18;56.65;97640.53;4932960;28;122806;-78
2023/04/24 01:38:34;;;;;;;;;;;13.80;91.70;;;14.17;56.80;97644.47;4934177;28;115215;-80
2023/04/24 01:41:01;;;;;;;;;;;13.80;91.70;;;14.16;56.86;97638.13;4931238;28;113824;-78
2023/04/24 01:43:28;;;;;;;;;;;13.80;91.80;;;14.13;56.85;97642.44;4930848;28;125677;-76
2023/04/24 01:45:54;;;;;;;;;;;15.10;92.40;;;14.15;56.90;97637.31;4927809;28;124546;-76
2023/04/24 01:48:20;;;;;;;;;;;13.80;91.80;;;14.14;57.23;97619.03;4931401;28;114129;-76
2023/04/24 01:50:49;;;;;;;;;;;13.80;91.90;;;14.16;57.15;97621.47;4926676;28;114541;-77
2023/04/24 01:53:15;;;;;;;;;;;13.80;92.00;;;14.13;57.25;97628.56;4930046;28;124260;-77
2023/04/24 01:55:42;;;;;;;;;;;13.80;92.00;;;14.11;57.30;97630.88;4930655;28;124500;-78
2023/04/24 01:58:08;;;;;;;;;;;13.80;92.10;;;14.09;57.59;97633.22;4932010;28;113916;-77
2023/04/24 02:00:34;;;;;;;;;;;13.80;92.10;;;14.09;57.60;97632.41;4931259;28;113026;-77
2023/04/24 02:03:04;;;;;;;;;;;13.80;92.10;;;14.08;57.38;97637.16;4931021;28;124449;-81
2023/04/24 02:05:30;;;;;;;;;;;13.10;91.80;;;14.07;57.29;97643.88;4932660;28;125868;-76
2023/04/24 02:07:56;;;;;;;;;;;13.70;92.20;;;14.07;57.59;97640.31;4927858;28;115582;-80
2023/04/24 02:10:23;;;;;;;;;;;13.70;92.20;;;14.07;57.56;97643.88;4932100;28;114664;-79
2023/04/24 02:12:49;;;;;;;;;;;13.70;92.10;;;14.10;57.51;97639.56;4932614;28;123528;-81
2023/04/24 02:15:16;;;;;;;;;;;13.70;92.20;;;14.08;57.58;97642.72;4925679;28;124619;-77
2023/04/24 02:17:42;;;;;;;;;;;13.70;92.20;;;14.08;57.60;97642.72;4923770;28;114529;-79
2023/04/24 02:20:08;;;;;;;;;;;13.80;92.20;;;14.09;57.42;97630.44;4928651;28;113420;-77
2023/04/24 02:22:34;;;;;;;;;;;13.80;92.20;;;14.13;57.52;97638.84;4926966;28;124839;-76
2023/04/24 02:25:01;;;;;;;;;;;13.80;92.20;;;14.14;57.58;97630.16;4925345;28;123995;-80
2023/04/24 02:27:27;;;;;;;;;;;13.70;92.30;;;14.16;57.34;97629.81;4930349;28;114348;-77
2023/04/24 02:29:53;;;;;;;;;;;13.70;92.40;;;14.14;57.70;97627.38;4944681;28;113661;-80
2023/04/24 02:32:20;;;;;;;;;;;13.70;92.30;;;14.16;57.48;97638.13;4932274;28;123895;-77
2023/04/24 02:34:46;;;;;;;;;;;13.80;92.30;;;14.14;57.42;97644.03;4929772;28;123830;-80
2023/04/24 02:37:12;;;;;;;;;;;13.70;92.20;;;14.10;57.67;97650.69;4929881;28;114483;-77
2023/04/24 02:39:39;;;;;;;;;;;13.80;92.30;;;14.06;57.75;97649.81;4918837;28;113749;-81
2023/04/24 02:42:05;;;;;;;;;;;13.70;92.30;;;14.03;57.62;97668.00;4916914;28;124588;-78
2023/04/24 02:44:31;;;;;;;;;;;13.70;92.30;;;13.98;58.14;97659.97;4917184;28;124907;-77
2023/04/24 02:46:57;;;;;;;;;;;13.60;92.40;;;13.95;58.51;97666.25;4928900;28;114362;-77
2023/04/24 02:49:24;;;;;;;;;;;13.70;92.70;;;13.92;58.85;97655.88;4932623;28;112831;-77
2023/04/24 02:51:50;;;;;;;;;;;13.60;92.80;;;13.91;58.98;97654.22;4921420;28;124349;-77
2023/04/24 02:54:16;;;;;;;;;;;13.60;93.00;;;13.92;59.11;97656.66;4929743;28;123856;-77
2023/04/24 02:56:43;;;;;;;;;;;13.60;93.00;;;13.92;59.41;97651.09;4923007;28;115526;-77
2023/04/24 02:59:10;;;;;;;;;;;13.60;93.10;;;13.92;59.35;97637.22;4928793;28;114790;-80
2023/04/24 03:01:36;;;;;;;;;;;13.60;93.20;;;13.95;59.35;97634.91;4911718;28;123905;-78
2023/04/24 03:04:03;;;;;;;;;;;13.60;93.20;;;14.01;59.53;97637.00;4932686;28;123926;-78
2023/04/24 03:06:31;;;;;;;;;;;13.70;93.30;;;14.04;59.54;97639.06;4931867;28;114533;-77
2023/04/24 03:08:57;;;;;;;;;;;13.70;93.40;;;14.05;59.52;97637.91;4918719;28;113806;-77
2023/04/24 03:11:23;;;;;;;;;;;13.80;93.50;;;14.03;59.58;97623.56;4916735;28;124171;-77
2023/04/24 03:13:49;;;;;;;;;;;13.70;93.40;;;14.02;59.50;97627.50;4932546;28;122942;-77
2023/04/24 03:16:16;;;;;;;;;;;13.70;93.50;;;14.00;59.86;97632.63;4930431;28;114301;-76
2023/04/24 03:18:42;;;;;;;;;;;13.70;93.50;;;13.98;59.57;97632.19;4928674;28;113827;-77
2023/04/24 03:21:08;;;;;;;;;;;13.70;93.60;;;13.91;59.70;97626.47;4923576;28;123922;-78
2023/04/24 03:23:35;;;;;;;;;;;13.60;93.60;;;13.88;59.85;97621.66;4914402;28;123918;-79
2023/04/24 03:26:02;;;;;;;;;;;13.60;93.60;;;13.87;60.06;97618.06;4917100;28;114482;-78
2023/04/24 03:28:28;;;;;;;;;;;13.50;93.60;;;13.84;60.03;97627.13;4928876;28;113679;-79
2023/04/24 03:30:54;;;;;;;;;;;13.50;93.60;;;13.83;60.24;97635.81;4930414;28;123122;-80
2023/04/24 03:33:20;;;;;;;;;;;13.50;93.70;;;13.79;60.19;97641.28;4927563;28;123907;-75
2023/04/24 03:35:47;;;;;;;;;;;13.50;93.80;;;13.75;60.44;97628.47;4930611;28;114410;-76
2023/04/24 03:38:13;;;;;;;;;;;13.50;93.80;;;13.70;60.54;97630.38;4930827;28;114282;-74
2023/04/24 03:40:39;;;;;;;;;;;13.50;93.90;;;13.67;60.73;97622.78;4929722;28;124860;-75
2023/04/24 03:43:06;;;;;;;;;;;13.40;93.90;;;13.70;60.88;97638.72;4912905;28;123451;-77
2023/04/24 03:45:32;;;;;;;;;;;13.40;94.10;;;13.69;60.67;97620.44;4913567;28;115258;-77
2023/04/24 03:47:58;;;;;;;;;;;13.40;94.10;;;13.67;60.90;97611.69;4912595;28;116513;-79
2023/04/24 03:50:26;;;;;;;;;;;13.40;94.10;;;13.67;60.96;97603.38;4915717;28;124122;-77
2023/04/24 03:52:52;;;;;;;;;;;13.40;94.10;;;13.68;60.82;97604.16;4930611;28;123910;-76
2023/04/24 03:55:18;;;;;;;;;;;14.20;94.60;;;13.68;61.05;97606.94;4931170;28;114486;-76
2023/04/24 03:57:45;;;;;;;;;;;13.30;94.20;;;13.67;60.95;97611.69;4917952;28;113752;-77
2023/04/24 04:00:12;;;;;;;;;;;13.30;94.20;;;13.68;60.97;97618.03;4929452;28;124755;-76
2023/04/24 04:02:38;;;;;;;;;;;13.40;94.30;;;13.66;60.86;97615.63;4917070;28;124689;-76
2023/04/24 04:05:04;;;;;;;;;;;13.30;94.30;;;13.64;61.18;97625.47;4930050;28;114198;-78
2023/04/24 04:07:31;;;;;;;;;;;13.40;94.30;;;13.63;60.93;97633.00;4929487;28;113940;-75
2023/04/24 04:09:58;;;;;;;;;;;13.30;94.30;;;13.59;61.32;97629.31;4929700;28;124138;-76
2023/04/24 04:12:24;;;;;;;;;;;13.20;94.40;;;13.56;61.11;97637.56;4929734;28;122660;-76
2023/04/24 04:14:53;;;;;;;;;;;13.20;94.50;;;13.51;61.32;97646.16;4929391;28;114225;-76
2023/04/24 04:17:19;;;;;;;;;;;13.20;94.40;;;13.48;61.22;97653.25;4929630;28;114100;-77
2023/04/24 04:19:45;;;;;;;;;;;13.20;94.40;;;13.45;61.33;97649.22;4929798;28;125264;-76
2023/04/24 04:22:12;;;;;;;;;;;13.20;94.50;;;13.43;61.44;97656.28;4913493;28;123699;-79
2023/04/24 04:24:40;;;;;;;;;;;13.10;94.40;;;13.40;61.65;97681.97;4928659;28;114374;-75
2023/04/24 04:27:07;;;;;;;;;;;13.10;94.60;;;13.37;61.87;97719.56;4914921;28;114690;-79
2023/04/24 04:29:34;;;;;;;;;;;13.10;94.80;;;13.33;61.55;97734.53;4919685;28;124418;-79
2023/04/24 04:32:02;;;;;;;;;;;13.00;94.80;;;13.22;60.42;97723.94;4926136;28;124591;-77
2023/04/24 04:34:29;;;;;;;;;;;12.90;93.90;;;13.14;59.91;97718.56;4928813;28;115469;-75
2023/04/24 04:36:55;;;;;;;;;;;12.80;93.60;;;13.04;59.92;97708.78;4919306;28;116373;-76
2023/04/24 04:39:22;;;;;;;;;;;12.80;93.50;;;13.01;59.67;97713.06;4927928;28;124245;-75
2023/04/24 04:41:48;;;;;;;;;;;12.70;93.40;;;12.98;59.83;97718.53;4918701;28;124014;-75
2023/04/24 04:44:15;;;;;;;;;;;12.70;93.60;;;12.97;60.09;97716.91;4922823;28;114607;-77
2023/04/24 04:46:41;;;;;;;;;;;12.70;93.60;;;12.96;60.07;97718.06;4919595;28;113814;-77
2023/04/24 04:49:08;;;;;;;;;;;13.70;94.10;;;12.91;60.05;97732.19;4926648;28;124303;-77
2023/04/24 04:51:34;;;;;;;;;;;12.60;93.60;;;12.87;59.98;97732.09;4919646;28;124543;-76
2023/04/24 04:54:01;;;;;;;;;;;12.60;93.60;;;12.79;59.70;97731.09;4922711;28;115316;-75
2023/04/24 04:56:27;;;;;;;;;;;12.50;93.30;;;12.75;59.80;97734.91;4920724;28;113152;-79
2023/04/24 04:58:53;;;;;;;;;;;12.50;93.30;;;12.71;59.79;97737.59;4925241;28;123952;-77
2023/04/24 05:01:21;;;;;;;;;;;12.50;93.30;;;12.69;59.91;97745.44;4924100;28;123718;-76
2023/04/24 05:03:47;;;;;;;;;;;12.50;93.40;;;12.70;59.92;97749.03;4928776;28;114711;-76
2023/04/24 05:06:15;;;;;;;;;;;12.50;93.40;;;12.69;59.89;97756.53;4929645;28;113677;-77
2023/04/24 05:08:42;;;;;;;;;;;12.50;93.70;;;12.68;60.00;97760.47;4928733;28;124222;-76
2023/04/24 05:11:08;;;;;;;;;;;12.40;93.40;;;12.65;60.03;97761.16;4923789;28;124127;-76
2023/04/24 05:13:35;;;;;;;;;;;12.40;93.30;;;12.62;59.76;97767.41;4921349;28;113737;-76
2023/04/24 05:16:01;;;;;;;;;;;12.30;93.20;;;12.58;59.62;97772.84;4917676;28;113600;-80
2023/04/24 05:18:30;;;;;;;;;;;12.40;93.30;;;12.56;60.09;97783.47;4934879;28;127682;-77
2023/04/24 05:20:56;;;;;;;;;;;12.30;93.30;;;12.55;60.06;97778.28;4910793;28;124364;-80
2023/04/24 05:23:22;;;;;;;;;;;12.30;93.40;;;12.58;60.36;97783.13;4913684;28;115293;-76
2023/04/24 05:25:50;;;;;;;;;;;12.30;93.40;;;12.58;60.02;97785.91;4928654;28;114827;-75
2023/04/24 05:28:18;;;;;;;;;;;12.30;93.40;;;12.56;60.09;97786.25;4929609;28;124168;-75
2023/04/24 05:30:46;;;;;;;;;;;12.30;93.40;;;12.57;60.11;97798.13;4928285;28;122872;-78
2023/04/24 05:33:17;;;;;;;;;;;13.60;94.00;;;12.60;60.11;97797.44;4938957;28;114093;-78
2023/04/24 05:35:46;;;;;;;;;;;13.50;94.00;;;12.61;59.89;97810.13;4933007;28;113963;-76
2023/04/24 05:38:12;;;;;;;;;;;12.30;93.50;;;12.62;59.84;97822.03;4934163;28;123637;-78
2023/04/24 05:40:39;;;;;;;;;;;12.40;93.40;;;12.59;59.91;97806.91;4933905;28;124913;-77
2023/04/24 05:43:05;;;;;;;;;;;12.20;93.20;;;12.57;59.88;97814.75;4934289;28;113653;-76
2023/04/24 05:45:35;;;;;;;;;;;12.30;93.30;;;12.59;59.64;97809.66;4927422;28;114038;-82
2023/04/24 05:48:02;;;;;;;;;;;12.30;93.30;;;12.62;59.89;97825.59;4921264;28;124640;-77
2023/04/24 05:50:28;;;;;;;;;;;12.30;93.30;;;12.64;59.51;97828.03;4929732;28;122171;-76
2023/04/24 05:52:56;;;;;;;;;;;12.30;93.30;;;12.63;59.76;97823.63;4928031;28;114592;-77
2023/04/24 05:55:22;;;;;;;;;;;12.30;93.20;;;12.64;59.69;97831.59;4925511;28;113022;-76
2023/04/24 05:57:48;;;;;;;;;;;12.40;93.30;;;12.65;59.77;97838.75;4928169;28;124292;-73
2023/04/24 06:00:15;;;;;;;;;;;12.40;93.30;;;12.66;59.74;97839.56;4927668;28;124293;-81
2023/04/24 06:02:41;;;;;;;;;;;12.40;93.30;;;12.69;59.73;97844.41;4931129;28;113812;-76
2023/04/24 06:05:08;;;;;;;;;;;12.40;93.30;;;12.72;59.49;97850.06;4924857;28;113726;-77
2023/04/24 06:07:34;;;;;;;;;;;12.40;93.30;;;12.76;59.29;97848.22;4930812;28;123677;-78
2023/04/24 06:10:00;;;;;;;;;;;12.40;93.30;;;12.78;59.47;97848.66;4913789;28;123938;-79
2023/04/24 06:12:27;;;;;;;;;;;12.40;93.20;;;12.81;59.42;97845.19;4930401;28;114549;-75
2023/04/24 06:14:55;;;;;;;;;;;12.50;93.30;;;12.81;58.94;97844.38;4912576;28;114519;-86
2023/04/24 06:17:21;;;;;;;;;;;12.50;93.20;;;12.85;59.02;97836.19;4931451;28;123382;-77
2023/04/24 06:19:48;;;;;;;;;;;12.50;93.10;;;12.87;59.10;97836.59;4928226;28;124815;-78
2023/04/24 06:22:15;;;;;;;;;;;12.50;93.10;;;12.91;58.94;97835.56;4924904;28;114212;-77
2023/04/24 06:24:41;;;;;;;;;;;12.60;93.10;;;12.98;58.76;97840.53;4918220;28;113887;-76
2023/04/24 06:27:07;;;;;;;;;;;12.60;93.10;;;13.03;58.58;97843.84;4927843;28;125359;-76
2023/04/24 06:29:34;;;;;;;;;;;12.70;93.00;;;13.11;58.37;97839.31;4929676;28;124288;-77
2023/04/24 06:32:02;;;;;;;;;;;12.70;93.00;;;13.19;57.97;97837.53;4913649;28;114494;-78
2023/04/24 06:34:30;;;;;;;;;;;12.70;92.80;;;13.23;57.67;97836.47;4931785;28;113890;-76
2023/04/24 06:36:56;;;;;;;;;;;13.80;93.20;;;13.34;57.54;97836.81;4919841;28;124526;-76
2023/04/24 06:39:23;;;;;;;;;;;11.10;92.00;;;13.44;57.19;97827.19;4929232;28;124333;-77
2023/04/24 06:41:49;;;;;;;;;;;12.90;92.60;;;13.54;57.07;97829.44;4930276;28;114891;-78
2023/04/24 06:44:16;;;;;;;;;;;13.00;92.60;;;13.63;56.38;97829.25;4930117;28;113865;-77
2023/04/24 06:46:42;;;;;;;;;;;13.10;92.20;;;13.70;56.03;97823.88;4930220;28;124619;-75
2023/04/24 06:49:09;;;;;;;;;;;13.10;92.00;;;13.74;56.09;97826.75;4927267;28;123215;-77
2023/04/24 06:51:36;;;;;;;;;;;13.20;91.90;;;13.86;55.50;97818.31;4930164;28;114484;-75
2023/04/24 06:54:02;;;;;;;;;;;13.30;91.80;;;13.94;55.03;97825.66;4930945;28;113933;-75
2023/04/24 06:56:31;;;;;;;;;;;13.30;91.50;;;14.02;54.80;97830.25;4930430;28;124230;-76
2023/04/24 06:58:58;;;;;;;;;;;13.40;91.40;;;14.08;54.46;97825.25;4914206;28;122955;-76
2023/04/24 07:01:24;;;;;;;;;;;13.50;91.10;;;14.12;53.73;97828.91;4921310;28;115911;-76
2023/04/24 07:03:50;;;;;;;;;;;13.60;90.80;;;14.11;53.48;97825.31;4922871;28;114827;-77
2023/04/24 07:06:22;;;;;;;;;;;13.60;90.50;;;14.14;53.44;97832.94;4929823;28;125131;-75
2023/04/24 07:08:48;;;;;;;;;;;13.60;90.40;;;14.15;52.85;97836.50;4926624;28;123791;-77
2023/04/24 07:11:15;;;;;;;;;;;13.70;90.10;;;14.19;52.97;97831.06;4925010;28;114544;-79
2023/04/24 07:13:41;;;;;;;;;;;13.70;90.10;;;14.16;52.82;97835.38;4930161;28;113982;-78
2023/04/24 07:16:10;;;;;;;;;;;13.70;89.60;;;14.14;52.04;97835.72;4931602;28;123238;-76
2023/04/24 07:18:37;;;;;;;;;;;13.70;88.90;;;14.08;52.02;97842.72;4930268;28;124036;-75
2023/04/24 07:21:03;;;;;;;;;;;13.70;88.70;;;14.03;52.02;97854.09;4930330;28;114582;-75
2023/04/24 07:23:31;;;;;;;;;;;13.60;88.40;;;13.98;52.39;97848.00;4931676;28;113828;-75
2023/04/24 07:25:57;;;;;;;;;;;13.60;88.60;;;13.95;52.64;97854.28;4932849;28;124255;-76
2023/04/24 07:28:26;;;;;;;;;;;13.60;88.80;;;13.95;52.66;97852.28;4939005;28;123842;-79
2023/04/24 07:30:53;;;;;;;;;;;13.60;88.90;;;13.96;52.01;97864.22;4938432;28;114039;-77
2023/04/24 07:33:20;;;;;;;;;;;13.60;88.10;;;13.91;50.89;97860.50;4933150;28;115493;-77
2023/04/24 07:35:46;;;;;;;;;;;13.50;86.70;;;13.89;50.45;97850.97;4929202;28;124567;-76
2023/04/24 07:38:12;;;;;;;;;;;13.50;85.80;;;13.96;49.80;97855.88;4928703;28;124482;-77
2023/04/24 07:40:39;;;;;;;;;;;13.60;85.20;;;14.04;49.00;97864.03;4927829;28;114539;-76
2023/04/24 07:43:05;;;;;;;;;;;13.60;84.50;;;14.12;47.85;97853.91;4930405;28;114113;-77
2023/04/24 07:45:33;;;;;;;;;;;13.60;83.00;;;14.19;47.90;97876.31;4928735;28;123279;-77
2023/04/24 07:47:59;;;;;;;;;;;13.70;82.70;;;14.23;46.78;97870.81;4930594;28;122397;-76
2023/04/24 07:50:28;;;;;;;;;;;13.70;80.90;;;14.21;45.56;97870.38;4927886;28;115540;-76
2023/04/24 07:52:54;;;;;;;;;;;13.70;79.30;;;14.14;45.67;97874.59;4927746;28;114753;-78
2023/04/24 07:55:21;;;;;;;;;;;13.70;79.00;;;14.08;45.89;97881.59;4928826;28;124350;-77
2023/04/24 07:57:47;;;;;;;;;;;13.70;78.90;;;14.05;45.46;97874.00;4929643;28;123964;-78
2023/04/24 08:00:17;;;;;;;;;;;13.70;78.40;;;14.00;45.31;97888.13;4947148;28;114071;-77
2023/04/24 08:02:43;;;;;;;;;;;13.60;78.00;;;13.99;45.12;97896.81;4933874;28;113573;-77
2023/04/24 08:05:10;;;;;;;;;;;13.60;77.30;;;13.95;44.76;97896.72;4929331;28;124379;-78
2023/04/24 08:07:36;;;;;;;;;;;13.60;77.30;;;13.92;44.69;97895.47;4929564;28;124744;-78
2023/04/24 08:10:02;;;;;;;;;;;13.60;76.70;;;13.91;45.22;97898.59;4919401;28;114146;-80
2023/04/24 08:12:29;;;;;;;;;;;13.60;77.30;;;13.91;45.29;97904.16;4930068;28;113083;-77
2023/04/24 08:14:55;;;;;;;;;;;13.60;77.30;;;13.89;44.90;97917.59;4929307;28;124437;-77
2023/04/24 08:17:22;;;;;;;;;;;13.50;76.90;;;13.86;44.82;97918.28;4928200;28;124297;-78
2023/04/24 08:19:48;;;;;;;;;;;13.50;76.60;;;13.83;44.94;97913.44;4917112;28;114593;-76
2023/04/24 08:22:18;;;;;;;;;;;13.50;76.50;;;13.83;44.83;97925.34;4910158;28;114124;-77
2023/04/24 08:24:44;;;;;;;;;;;13.50;76.30;;;13.82;44.44;97911.84;4919146;28;124631;-78
2023/04/24 08:27:10;;;;;;;;;;;13.50;75.90;;;13.80;44.27;97919.72;4928610;28;123827;-76
2023/04/24 08:29:39;;;;;;;;;;;13.40;75.20;;;13.77;43.83;97926.00;4927544;28;114429;-75
2023/04/24 08:32:32;;;;;;;;;;;13.40;74.60;;;13.74;44.03;97927.50;4929588;28;114107;-82
2023/04/24 08:35:17;;;;;;;;;;;13.40;74.80;;;13.70;43.87;97921.88;4923384;28;123553;-77
2023/04/24 08:37:50;;;;;;;;;;;13.40;74.60;;;13.65;44.24;97918.53;4930082;28;123609;-77
2023/04/24 08:40:16;;;;;;;;;;;13.40;75.00;;;13.64;44.28;97922.47;4928579;28;116905;-78
2023/04/24 08:42:53;;;;;;;;;;;13.40;75.20;;;13.65;44.57;97936.00;4927853;28;114751;-77
2023/04/24 08:45:57;;;;;;;;;;;13.30;75.50;;;13.67;44.38;97933.69;4924725;28;123998;-77
2023/04/24 08:48:32;;;;;;;;;;;13.30;75.10;;;13.62;44.67;97964.47;4918188;28;124239;-77
2023/04/24 08:51:09;;;;;;;;;;;13.30;75.20;;;13.61;44.74;97946.19;4925537;28;114646;-77
2023/04/24 08:53:41;;;;;;;;;;;13.30;75.50;;;13.59;45.35;97956.81;4927365;28;113590;-77
2023/04/24 08:56:08;;;;;;;;;;;13.30;75.80;;;13.54;45.24;97953.50;4910757;28;123684;-75
2023/04/24 08:58:35;;;;;;;;;;;13.20;75.90;;;13.54;45.15;97951.53;4921460;28;123761;-76
2023/04/24 09:01:14;;;;;;;;;;;13.20;76.20;;;13.52;45.96;97953.84;4927468;28;114437;-76
2023/04/24 09:04:24;;;;;;;;;;;13.20;77.10;;;13.54;46.34;97956.25;4913694;28;114293;-76
2023/04/24 09:06:59;;;;;;;;;;;13.20;77.60;;;13.60;46.13;97943.78;4788321;29;124200;-76
2023/04/24 09:09:37;;;;;;;;;;;13.20;77.60;;;13.58;45.81;97963.53;4849396;29;124051;-76
2023/04/24 09:12:32;;;;;;;;;;;13.20;77.10;;;13.50;45.90;97967.28;4819212;29;113907;-76
2023/04/24 09:15:26;;;;;;;;;;;13.20;77.00;;;13.40;46.29;97974.13;4818601;29;115593;-75
2023/04/24 09:18:07;;;;;;;;;;;13.10;77.40;;;13.30;47.54;97985.72;4804289;29;123717;-79
2023/04/24 09:24:24;;;;;;;;;;;13.00;79.90;;;13.09;49.01;98001.69;4809188;29;114742;-83
2023/04/24 09:27:46;;;;;;;;;;;12.80;81.00;;;12.94;49.72;97994.88;4830469;29;113454;-81
2023/04/24 09:30:51;;;;;;;;;;;12.70;81.60;;;12.87;50.53;98016.81;4820284;29;124353;-77
2023/04/24 09:33:58;;;;;;;;;;;12.60;82.40;;;12.77;51.16;98007.81;4818523;29;123464;-77
2023/04/24 09:36:47;;;;;;;;;;;13.00;83.80;;;12.73;51.04;98008.84;4812708;29;115805;-77
2023/04/24 09:39:20;;;;;;;;;;;12.50;83.60;;;12.69;50.87;98000.41;4827889;29;114578;-82
2023/04/24 09:42:18;;;;;;;;;;;12.40;83.40;;;12.65;51.08;98005.03;4834257;29;123465;-77
2023/04/24 09:44:52;;;;;;;;;;;12.40;83.40;;;12.67;50.71;98008.25;4778735;29;123578;-79
2023/04/24 09:47:27;;;;;;;;;;;12.40;83.30;;;12.73;50.65;98009.66;4778152;29;114352;-76
2023/04/24 09:50:35;;;;;;;;;;;13.80;84.80;;;12.80;50.52;98012.66;4780282;29;113342;-79
2023/04/24 09:56:18;;;;;;;;;;;12.50;83.20;;;12.98;49.42;98018.78;4821987;29;124270;-77
2023/04/24 09:58:46;;;;;;;;;;;11.30;80.70;;;13.02;48.67;98018.88;4835906;29;114798;-76
2023/04/24 10:01:32;;;;;;;;;;;12.60;81.00;;;13.05;48.75;98024.53;4834132;29;113746;-76
2023/04/24 10:04:45;;;;;;;;;;;12.70;80.80;;;13.13;48.41;98030.31;4835025;29;127818;-76
2023/04/24 10:07:29;;;;;;;;;;;12.70;80.70;;;13.18;46.93;98016.22;4836728;29;124648;-76
2023/04/24 10:10:11;;;;;;;;;;;12.70;79.00;;;13.25;45.80;98044.19;4823938;29;113996;-79
2023/04/24 10:13:05;;;;;;;;;;;12.80;77.90;;;13.31;45.09;98033.69;4836457;29;114333;-81
2023/04/24 10:15:35;;;;;;;;;;;12.90;76.30;;;13.31;44.42;98019.81;4834873;29;123451;-76
2023/04/24 10:18:11;;;;;;;;;;;12.90;75.20;;;13.34;43.66;98021.88;4820922;29;123415;-77
2023/04/24 10:20:40;;;;;;;;;;;12.90;73.90;;;13.37;42.85;98013.66;4839797;28;114580;-76
2023/04/24 10:25:43;;;;;;;;;;;13.00;71.40;;;13.49;42.17;98010.06;5314483;22;98712;-85
2023/04/24 10:28:09;;;;;;;;;;;13.00;71.60;;;13.57;41.23;98027.75;4901936;28;123813;-89
2023/04/24 10:30:36;;;;;;;;;;;13.10;70.10;;;13.67;41.30;98039.16;4920879;28;115695;-87
2023/04/24 10:33:03;;;;;;;;;;;13.20;69.90;;;13.75;40.78;98031.03;4896045;28;115031;-87
2023/04/24 10:35:35;;;;;;;;;;;13.30;69.30;;;13.80;40.49;98025.22;4905616;28;124880;-86
2023/04/24 10:38:19;;;;;;;;;;;13.40;69.00;;;13.85;40.67;98022.19;4919645;28;123790;-87
2023/04/24 10:40:45;;;;;;;;;;;13.40;68.80;;;13.88;41.42;98027.84;4905338;28;114536;-84
2023/04/24 10:43:17;;;;;;;;;;;13.50;69.70;;;13.92;40.96;98033.53;4907591;28;113849;-86
2023/04/24 10:46:02;;;;;;;;;;;14.90;70.60;;;13.96;40.99;98033.59;4907514;28;123870;-87
2023/04/24 10:48:28;;;;;;;;;;;13.60;69.40;;;13.96;41.15;98039.97;4915436;28;123688;-86
2023/04/24 10:50:54;;;;;;;;;;;13.60;69.30;;;13.95;40.59;98035.59;4910702;28;114212;-85
2023/04/24 10:53:27;;;;;;;;;;;13.60;68.40;;;13.97;40.31;98047.16;4937497;28;113984;-85
2023/04/24 10:56:01;;;;;;;;;;;13.60;68.00;;;13.97;40.48;98046.31;4922807;28;124336;-85
2023/04/24 10:58:38;;;;;;;;;;;13.50;68.30;;;13.96;40.83;98037.19;4912936;28;123785;-85
2023/04/24 11:01:04;;;;;;;;;;;13.60;68.70;;;13.98;41.06;98040.44;4911224;28;114564;-85
2023/04/24 11:03:32;;;;;;;;;;;13.60;68.70;;;14.02;40.97;98043.28;4911351;28;113614;-85
2023/04/24 11:06:04;;;;;;;;;;;13.60;69.10;;;14.05;41.03;98048.97;4924721;28;124171;-85
2023/04/24 11:08:44;;;;;;;;;;;13.70;69.10;;;14.04;40.87;98046.53;4909358;28;124094;-85
2023/04/24 11:11:12;;;;;;;;;;;13.70;68.70;;;14.00;40.91;98052.00;4899414;28;114250;-85
2023/04/24 11:13:59;;;;;;;;;;;13.60;68.60;;;13.96;41.07;98070.50;4909920;28;112826;-87
2023/04/24 11:16:29;;;;;;;;;;;13.60;68.60;;;13.95;41.40;98060.59;4901394;28;124585;-87
2023/04/24 11:19:06;;;;;;;;;;;13.60;69.10;;;13.98;41.55;98059.06;4907522;28;123908;-85
2023/04/24 11:21:46;;;;;;;;;;;13.60;69.30;;;13.98;41.29;98061.84;4893508;28;114404;-87
2023/04/24 11:24:26;;;;;;;;;;;13.60;69.20;;;13.98;41.47;98076.53;4908732;28;114822;-88
2023/04/24 11:27:05;;;;;;;;;;;13.60;69.30;;;13.98;41.22;98065.44;4892910;28;123646;-87
2023/04/24 11:29:45;;;;;;;;;;;13.60;68.80;;;14.04;41.46;98068.75;4907381;28;124884;-87